createdAt,value
2023-03-26T00:01:46.847Z,155.35
2023-03-26T00:04:14.254Z,155.57
2023-03-26T00:06:42.098Z,149.27
2023-03-26T00:09:13.768Z,152.73
2023-03-26T00:11:43.464Z,150.82
2023-03-26T00:14:13.990Z,145.82
2023-03-26T00:16:42.991Z,154.80
2023-03-26T00:19:11.502Z,153.20
2023-03-26T00:21:38.285Z,151.82
2023-03-26T00:24:15.126Z,146.63
2023-03-26T00:26:43.561Z,154.70
2023-03-26T00:29:14.104Z,150.38
2023-03-26T00:31:45.870Z,153.77
2023-03-26T00:34:17.604Z,148.48
2023-03-26T00:36:47.408Z,145.05
2023-03-26T00:39:18.108Z,155.23
2023-03-26T00:41:44.904Z,153.65
2023-03-26T00:44:13.945Z,149.40
2023-03-26T00:46:41.176Z,150.95
2023-03-26T00:49:14.998Z,147.55
2023-03-26T00:51:42.540Z,153.23
2023-03-26T00:54:09.609Z,146.68
2023-03-26T00:56:37.033Z,154.80
2023-03-26T00:59:04.480Z,152.40
2023-03-26T01:01:32.665Z,151.10
2023-03-26T01:04:28.521Z,157.07
2023-03-26T01:06:58.793Z,157.10
2023-03-26T01:09:36.074Z,152.18
2023-03-26T01:12:06.880Z,153.52
2023-03-26T01:14:36.320Z,153.63
2023-03-26T01:17:07.221Z,150.48
2023-03-26T01:19:40.183Z,148.38
2023-03-26T01:22:11.478Z,147.90
2023-03-26T01:24:39.894Z,153.85
2023-03-26T01:27:21.125Z,151.65
2023-03-26T01:30:11.761Z,154.70
2023-03-26T01:33:20.581Z,150.75
2023-03-26T01:35:56.613Z,161.68
2023-03-26T01:38:46.790Z,159.80
2023-03-26T01:41:37.775Z,156.97
2023-03-26T01:44:16.877Z,153.32
2023-03-26T01:46:44.647Z,155.43
2023-03-26T01:49:13.717Z,158.88
2023-03-26T01:51:44.859Z,160.68
2023-03-26T01:54:19.009Z,157.98
2023-03-26T01:56:45.933Z,162.00
2023-03-26T01:59:46.018Z,155.13
2023-03-26T02:02:17.771Z,162.10
2023-03-26T02:05:06.279Z,161.57
2023-03-26T02:07:38.163Z,151.90
2023-03-26T02:10:16.520Z,157.98
2023-03-26T02:12:46.459Z,155.63
2023-03-26T02:15:13.899Z,159.60
2023-03-26T02:17:41.073Z,156.45
2023-03-26T02:20:10.870Z,152.60
2023-03-26T02:22:46.289Z,158.48
2023-03-26T02:25:19.345Z,151.48
2023-03-26T02:27:49.829Z,152.43
2023-03-26T02:30:25.902Z,161.13
2023-03-26T02:32:59.110Z,151.75
2023-03-26T02:35:30.883Z,153.10
2023-03-26T02:38:00.492Z,161.20
2023-03-26T02:40:28.070Z,157.07
2023-03-26T02:42:55.639Z,157.82
2023-03-26T02:45:23.469Z,159.50
2023-03-26T02:47:51.328Z,148.23
2023-03-26T02:50:37.691Z,148.45
2023-03-26T02:53:29.977Z,148.27
2023-03-26T02:56:17.585Z,149.57
2023-03-26T02:58:59.340Z,155.18
2023-03-26T03:01:27.102Z,157.65
2023-03-26T03:03:55.467Z,149.52
2023-03-26T03:06:38.416Z,158.57
2023-03-26T03:09:08.530Z,150.18
2023-03-26T03:11:36.327Z,155.10
2023-03-26T03:14:06.189Z,153.63
2023-03-26T03:16:34.763Z,155.60
2023-03-26T03:19:14.304Z,151.52
2023-03-26T03:21:44.155Z,157.23
2023-03-26T03:24:11.967Z,156.93
2023-03-26T03:26:46.508Z,159.68
2023-03-26T03:29:30.507Z,157.18
2023-03-26T03:32:03.194Z,149.52
2023-03-26T03:34:50.817Z,158.68
2023-03-26T03:37:19.667Z,157.05
2023-03-26T03:39:53.387Z,152.90
2023-03-26T03:42:24.107Z,159.68
2023-03-26T03:44:55.841Z,159.20
2023-03-26T03:47:47.037Z,158.35
2023-03-26T03:50:17.806Z,159.55
2023-03-26T03:53:09.856Z,148.45
2023-03-26T03:55:39.698Z,158.10
2023-03-26T03:58:09.225Z,149.70
2023-03-26T04:00:42.279Z,156.23
2023-03-26T04:03:34.144Z,153.05
2023-03-26T04:06:07.236Z,154.93
2023-03-26T04:08:35.551Z,156.13
2023-03-26T04:11:06.387Z,152.02
2023-03-26T04:13:54.141Z,151.25
2023-03-26T04:16:29.951Z,157.25
2023-03-26T04:19:02.602Z,156.43
2023-03-26T04:21:31.183Z,153.05
2023-03-26T04:24:03.146Z,154.45
2023-03-26T04:26:51.291Z,149.48
2023-03-26T04:29:28.001Z,151.32
2023-03-26T04:31:59.067Z,156.43
2023-03-26T04:34:27.240Z,153.13
2023-03-26T04:37:27.916Z,158.68
2023-03-26T04:40:15.435Z,153.38
2023-03-26T04:42:54.888Z,151.48
2023-03-26T04:45:34.693Z,149.20
2023-03-26T04:48:02.579Z,157.10
2023-03-26T04:50:32.717Z,149.20
2023-03-26T04:53:04.465Z,149.48
2023-03-26T04:56:24.620Z,155.27
2023-03-26T04:59:15.983Z,151.25
2023-03-26T05:01:48.757Z,147.90
2023-03-26T05:04:19.251Z,151.77
2023-03-26T05:06:46.702Z,156.50
2023-03-26T05:09:29.239Z,151.13
2023-03-26T05:12:19.331Z,154.95
2023-03-26T05:15:13.141Z,152.63
2023-03-26T05:18:01.974Z,149.60
2023-03-26T05:20:54.835Z,149.35
2023-03-26T05:23:22.131Z,149.90
2023-03-26T05:26:03.101Z,155.68
2023-03-26T05:28:30.201Z,157.43
2023-03-26T05:31:10.673Z,159.98
2023-03-26T05:33:43.701Z,174.88
2023-03-26T05:36:15.167Z,163.98
2023-03-26T05:38:50.005Z,155.13
2023-03-26T05:41:53.606Z,312.55
2023-03-26T05:44:27.324Z,257.58
2023-03-26T05:46:54.822Z,225.02
2023-03-26T05:49:26.248Z,204.18
2023-03-26T05:51:55.984Z,263.77
2023-03-26T05:54:49.012Z,151.30
2023-03-26T05:57:40.012Z,145.73
2023-03-26T06:00:29.850Z,155.20
2023-03-26T06:02:57.508Z,165.50
2023-03-26T06:05:56.662Z,158.82
2023-03-26T06:08:41.469Z,152.38
2023-03-26T06:11:08.965Z,155.98
2023-03-26T06:13:39.642Z,153.30
2023-03-26T06:16:10.391Z,153.40
2023-03-26T06:19:11.803Z,153.23
2023-03-26T06:21:59.346Z,160.00
2023-03-26T06:24:31.110Z,151.48
2023-03-26T06:27:30.784Z,154.68
2023-03-26T06:30:18.864Z,159.70
2023-03-26T06:33:05.307Z,155.55
2023-03-26T06:35:38.510Z,148.57
2023-03-26T06:38:07.672Z,154.48
2023-03-26T06:40:35.277Z,154.43
2023-03-26T06:43:34.092Z,150.00
2023-03-26T06:46:16.838Z,155.60
2023-03-26T06:49:02.364Z,153.15
2023-03-26T06:51:48.744Z,158.18
2023-03-26T06:54:38.032Z,157.18
2023-03-26T06:57:39.931Z,157.90
2023-03-26T07:00:25.800Z,160.75
2023-03-26T07:03:11.630Z,159.15
2023-03-26T07:05:57.394Z,157.68
2023-03-26T07:08:42.958Z,150.27
2023-03-26T07:11:44.929Z,153.38
2023-03-26T07:14:39.102Z,155.95
2023-03-26T07:17:32.338Z,159.52
2023-03-26T07:20:24.472Z,161.05
2023-03-26T07:22:53.158Z,159.45
2023-03-26T07:25:39.139Z,156.57
2023-03-26T07:28:39.503Z,150.48
2023-03-26T07:31:29.739Z,156.95
2023-03-26T07:34:46.554Z,149.25
2023-03-26T07:38:06.429Z,152.52
2023-03-26T07:40:50.065Z,153.40
2023-03-26T07:46:34.105Z,155.25
2023-03-26T07:49:20.820Z,158.48
2023-03-26T07:52:11.191Z,158.55
2023-03-26T07:55:06.274Z,150.60
2023-03-26T07:58:28.716Z,155.90
2023-03-26T08:01:54.233Z,162.38
2023-03-26T08:04:49.765Z,157.48
2023-03-26T08:08:04.313Z,161.82
2023-03-26T08:10:54.931Z,158.25
2023-03-26T08:13:50.046Z,163.15
2023-03-26T08:16:27.625Z,161.38
2023-03-26T08:19:26.482Z,152.07
2023-03-26T08:22:01.582Z,151.50
2023-03-26T08:25:01.407Z,157.52
2023-03-26T08:27:43.998Z,163.18
2023-03-26T08:30:36.131Z,153.88
2023-03-26T08:33:11.532Z,157.48
2023-03-26T08:35:42.364Z,156.70
2023-03-26T08:38:10.964Z,158.57
2023-03-26T08:40:59.786Z,159.20
2023-03-26T08:44:06.995Z,160.70
2023-03-26T08:46:51.884Z,160.52
2023-03-26T08:49:40.650Z,163.63
2023-03-26T08:52:32.538Z,156.13
2023-03-26T08:55:23.181Z,154.07
2023-03-26T08:58:14.450Z,165.45
2023-03-26T09:01:20.082Z,158.88
2023-03-26T09:03:59.234Z,198.48
2023-03-26T09:07:06.821Z,157.23
2023-03-26T09:09:59.153Z,154.02
2023-03-26T09:12:38.635Z,159.23
2023-03-26T09:15:27.510Z,156.05
2023-03-26T09:18:03.467Z,152.77
2023-03-26T09:21:11.503Z,163.82
2023-03-26T09:23:41.571Z,156.35
2023-03-26T09:26:30.348Z,157.10
2023-03-26T09:29:12.698Z,166.35
2023-03-26T09:32:14.360Z,163.57
2023-03-26T09:35:13.287Z,162.60
2023-03-26T09:38:22.443Z,161.50
2023-03-26T09:41:34.602Z,164.20
2023-03-26T09:44:16.469Z,160.68
2023-03-26T09:47:11.415Z,168.52
2023-03-26T09:50:03.014Z,161.23
2023-03-26T09:52:45.777Z,162.95
2023-03-26T09:55:31.227Z,152.55
2023-03-26T09:58:13.466Z,158.50
2023-03-26T10:01:05.713Z,151.48
2023-03-26T10:03:55.003Z,151.07
2023-03-26T10:06:58.066Z,161.38
2023-03-26T10:12:43.902Z,157.13
2023-03-26T10:15:25.256Z,151.35
2023-03-26T10:18:27.284Z,158.68
2023-03-26T10:21:17.538Z,158.10
2023-03-26T10:23:45.575Z,151.35
2023-03-26T10:26:30.524Z,156.57
2023-03-26T10:29:35.400Z,157.57
2023-03-26T10:32:13.222Z,154.00
2023-03-26T10:35:34.654Z,151.13
2023-03-26T10:38:38.681Z,147.90
2023-03-26T10:41:18.977Z,157.40
2023-03-26T10:44:08.745Z,158.70
2023-03-26T10:47:08.739Z,151.63
2023-03-26T10:50:09.207Z,157.65
2023-03-26T10:52:47.156Z,151.90
2023-03-26T10:55:19.713Z,157.60
2023-03-26T10:57:56.902Z,151.57
2023-03-26T11:00:26.711Z,155.95
2023-03-26T11:03:30.846Z,155.60
2023-03-26T11:06:23.683Z,156.55
2023-03-26T11:09:21.596Z,158.88
2023-03-26T11:12:25.628Z,150.73
2023-03-26T11:15:25.935Z,158.15
2023-03-26T11:18:07.822Z,153.18
2023-03-26T11:20:49.902Z,154.88
2023-03-26T11:23:37.122Z,154.43
2023-03-26T11:26:13.459Z,151.57
2023-03-26T11:29:32.404Z,145.27
2023-03-26T11:32:15.843Z,158.48
2023-03-26T11:35:04.526Z,149.57
2023-03-26T11:37:53.821Z,153.77
2023-03-26T11:40:42.063Z,157.63
2023-03-26T11:43:20.122Z,157.13
2023-03-26T11:45:50.708Z,156.10
2023-03-26T11:48:40.099Z,154.65
2023-03-26T11:51:12.774Z,145.60
2023-03-26T11:53:40.239Z,150.40
2023-03-26T11:56:41.541Z,152.35
2023-03-26T11:59:42.205Z,151.83
2023-03-26T12:02:29.557Z,150.55
2023-03-26T12:05:21.186Z,150.73
2023-03-26T12:08:00.119Z,150.93
2023-03-26T12:10:29.467Z,150.50
2023-03-26T12:13:00.108Z,146.25
2023-03-26T12:15:28.466Z,147.57
2023-03-26T12:17:58.528Z,149.35
2023-03-26T12:20:25.430Z,146.82
2023-03-26T12:22:59.335Z,149.27
2023-03-26T12:25:32.435Z,149.15
2023-03-26T12:28:05.187Z,149.82
2023-03-26T12:30:38.223Z,141.43
2023-03-26T12:33:09.684Z,140.15
2023-03-26T12:35:36.975Z,145.30
2023-03-26T12:38:34.955Z,149.05
2023-03-26T12:44:42.959Z,147.60
2023-03-26T12:44:52.999Z,142.45
2023-03-26T12:47:57.723Z,146.77
2023-03-26T12:50:06.138Z,145.63
2023-03-26T12:52:43.113Z,142.57
2023-03-26T12:55:36.808Z,147.30
2023-03-26T12:58:34.123Z,146.63
2023-03-26T13:01:16.680Z,143.50
2023-03-26T13:04:05.447Z,149.50
2023-03-26T13:06:59.924Z,150.55
2023-03-26T13:10:00.262Z,148.00
2023-03-26T13:12:47.287Z,143.82
2023-03-26T13:15:22.786Z,151.32
2023-03-26T13:18:06.463Z,143.23
2023-03-26T13:23:39.762Z,141.43
2023-03-26T13:26:58.415Z,143.52
2023-03-26T13:30:08.611Z,152.30
2023-03-26T13:33:13.852Z,146.32
2023-03-26T13:36:21.930Z,147.48
2023-03-26T13:38:59.334Z,139.93
2023-03-26T13:41:52.974Z,142.40
2023-03-26T13:44:33.597Z,145.82
2023-03-26T13:47:42.253Z,142.65
2023-03-26T13:50:31.865Z,146.80
2023-03-26T13:53:06.827Z,142.50
2023-03-26T13:55:37.883Z,141.35
2023-03-26T13:58:34.495Z,141.32
2023-03-26T14:01:16.860Z,147.55
2023-03-26T14:04:11.463Z,143.75
2023-03-26T14:06:57.589Z,141.95
2023-03-26T14:09:31.000Z,151.57
2023-03-26T14:11:58.057Z,150.10
2023-03-26T14:14:51.146Z,145.45
2023-03-26T14:17:25.588Z,143.63
2023-03-26T14:20:17.969Z,142.75
2023-03-26T14:23:17.627Z,143.25
2023-03-26T14:26:23.797Z,136.65
2023-03-26T14:29:12.584Z,137.68
2023-03-26T14:31:46.712Z,139.10
2023-03-26T14:34:52.012Z,144.20
2023-03-26T14:37:53.022Z,143.10
2023-03-26T14:40:32.822Z,144.75
2023-03-26T14:43:23.846Z,137.77
2023-03-26T14:46:14.782Z,140.23
2023-03-26T14:49:05.780Z,141.38
2023-03-26T14:51:54.959Z,146.40
2023-03-26T14:54:27.756Z,150.93
2023-03-26T14:57:33.420Z,140.27
2023-03-26T15:00:47.879Z,148.05
2023-03-26T15:03:53.422Z,141.45
2023-03-26T15:06:32.843Z,150.57
2023-03-26T15:09:41.368Z,151.13
2023-03-26T15:12:46.603Z,150.85
2023-03-26T15:15:33.136Z,153.18
2023-03-26T15:18:50.910Z,158.20
2023-03-26T15:21:54.228Z,154.68
2023-03-26T15:24:50.626Z,149.10
2023-03-26T15:27:57.511Z,153.85
2023-03-26T15:30:48.025Z,161.75
2023-03-26T15:33:41.701Z,149.43
2023-03-26T15:36:38.526Z,155.48
2023-03-26T15:39:25.560Z,148.73
2023-03-26T15:42:22.573Z,152.38
2023-03-26T15:44:59.041Z,149.93
2023-03-26T15:47:50.753Z,148.40
2023-03-26T15:50:47.259Z,157.98
2023-03-26T15:53:49.106Z,153.43
2023-03-26T15:57:02.270Z,151.13
2023-03-26T15:59:43.005Z,150.10
2023-03-26T16:02:34.969Z,155.80
2023-03-26T16:05:30.163Z,147.52
2023-03-26T16:08:38.889Z,157.15
2023-03-26T16:11:19.588Z,150.95
2023-03-26T16:14:08.103Z,154.32
2023-03-26T16:16:58.694Z,146.57
2023-03-26T16:19:36.364Z,155.00
2023-03-26T16:22:11.742Z,151.48
2023-03-26T16:24:44.203Z,153.45
2023-03-26T16:27:14.005Z,152.55
2023-03-26T16:30:02.936Z,151.65
2023-03-26T16:32:42.157Z,174.43
2023-03-26T16:35:19.052Z,205.60
2023-03-26T16:37:50.866Z,155.27
2023-03-26T16:40:50.764Z,160.48
2023-03-26T16:43:34.824Z,197.65
2023-03-26T16:46:46.094Z,177.38
2023-03-26T16:49:25.283Z,165.50
2023-03-26T16:52:15.428Z,149.15
2023-03-26T16:55:04.651Z,150.75
2023-03-26T16:58:03.251Z,153.60
2023-03-26T17:00:48.260Z,152.25
2023-03-26T17:03:31.205Z,153.60
2023-03-26T17:06:06.380Z,152.27
2023-03-26T17:09:19.804Z,153.60
2023-03-26T17:12:26.304Z,149.50
2023-03-26T17:15:06.672Z,145.25
2023-03-26T17:18:01.447Z,152.13
2023-03-26T17:20:51.117Z,148.27
2023-03-26T17:23:47.364Z,144.15
2023-03-26T17:26:45.824Z,151.70
2023-03-26T17:32:12.803Z,154.23
2023-03-26T17:34:52.890Z,152.57
2023-03-26T17:37:22.726Z,152.38
2023-03-26T17:39:55.520Z,153.75
2023-03-26T17:42:42.177Z,144.30
2023-03-26T17:45:17.730Z,151.68
2023-03-26T17:48:19.857Z,149.43
2023-03-26T17:51:12.869Z,149.57
2023-03-26T17:53:41.791Z,143.75
2023-03-26T17:56:30.056Z,153.32
2023-03-26T17:59:11.929Z,153.40
2023-03-26T18:01:44.832Z,153.80
2023-03-26T18:04:19.901Z,150.63
2023-03-26T18:07:06.751Z,146.40
2023-03-26T18:09:49.225Z,147.73
2023-03-26T18:12:31.681Z,150.65
2023-03-26T18:15:54.846Z,152.13
2023-03-26T18:18:33.305Z,152.60
2023-03-26T18:21:04.522Z,155.77
2023-03-26T18:23:45.147Z,154.15
2023-03-26T18:26:33.344Z,149.13
2023-03-26T18:29:15.602Z,150.30
2023-03-26T18:31:44.404Z,147.63
2023-03-26T18:34:19.837Z,148.02
2023-03-26T18:36:59.878Z,148.57
2023-03-26T18:39:28.326Z,147.48
2023-03-26T18:41:55.440Z,154.52
2023-03-26T18:44:24.053Z,157.07
2023-03-26T18:46:57.188Z,154.68
2023-03-26T18:49:27.092Z,150.07
2023-03-26T18:51:57.591Z,153.93
2023-03-26T18:54:30.830Z,154.02
2023-03-26T18:57:15.399Z,154.93
2023-03-26T18:59:45.735Z,149.35
2023-03-26T19:02:16.419Z,150.07
2023-03-26T19:04:46.971Z,153.18
2023-03-26T19:07:25.054Z,156.00
2023-03-26T19:09:57.121Z,153.43
2023-03-26T19:12:36.437Z,149.85
2023-03-26T19:15:18.185Z,152.82
2023-03-26T19:17:54.123Z,153.43
2023-03-26T19:20:28.230Z,154.10
2023-03-26T19:22:58.228Z,156.32
2023-03-26T19:25:55.050Z,159.55
2023-03-26T19:28:29.434Z,146.48
2023-03-26T19:31:16.262Z,151.48
2023-03-26T19:33:54.261Z,145.82
2023-03-26T19:36:32.810Z,156.93
2023-03-26T19:39:05.762Z,149.60
2023-03-26T19:41:40.786Z,154.45
2023-03-26T19:44:31.457Z,156.27
2023-03-26T19:47:05.852Z,154.88
2023-03-26T19:49:56.396Z,161.38
2023-03-26T19:52:38.252Z,150.93
2023-03-26T19:55:10.744Z,158.60
2023-03-26T19:57:38.586Z,155.50
2023-03-26T20:00:15.584Z,161.43
2023-03-26T20:02:46.387Z,158.18
2023-03-26T20:05:25.901Z,150.07
2023-03-26T20:08:00.605Z,155.20
2023-03-26T20:10:29.147Z,156.93
2023-03-26T20:13:01.385Z,157.65
2023-03-26T20:15:34.672Z,152.68
2023-03-26T20:18:04.334Z,153.30
2023-03-26T20:20:33.909Z,149.50
2023-03-26T20:23:11.109Z,149.75
2023-03-26T20:25:49.456Z,152.32
2023-03-26T20:28:20.568Z,153.98
2023-03-26T20:30:51.978Z,148.35
2023-03-26T20:33:27.953Z,155.83
2023-03-26T20:35:58.909Z,156.77
2023-03-26T20:38:39.209Z,158.80
2023-03-26T20:41:26.488Z,150.35
2023-03-26T20:44:00.059Z,152.82
2023-03-26T20:46:31.291Z,151.95
2023-03-26T20:49:03.026Z,157.50
2023-03-26T20:51:33.345Z,158.00
2023-03-26T20:54:00.801Z,165.38
2023-03-26T20:56:28.587Z,152.15
2023-03-26T21:01:29.837Z,156.80
2023-03-26T21:04:10.162Z,153.60
2023-03-26T21:06:42.924Z,150.10
2023-03-26T21:09:15.934Z,152.43
2023-03-26T21:12:15.825Z,156.25
2023-03-26T21:14:46.637Z,167.00
2023-03-26T21:17:17.098Z,158.90
2023-03-26T21:19:45.263Z,157.82
2023-03-26T21:22:36.152Z,161.68
2023-03-26T21:25:26.082Z,153.75
2023-03-26T21:28:35.425Z,159.63
2023-03-26T21:31:21.102Z,155.38
2023-03-26T21:33:52.376Z,169.95
2023-03-26T21:36:22.967Z,158.77
2023-03-26T21:38:54.865Z,160.10
2023-03-26T21:41:26.085Z,169.57
2023-03-26T21:43:54.845Z,163.65
2023-03-26T21:46:22.075Z,163.35
2023-03-26T21:48:49.522Z,166.63
2023-03-26T21:51:19.354Z,165.73
2023-03-26T21:53:49.590Z,169.73
2023-03-26T21:56:45.794Z,169.75
2023-03-26T21:59:45.069Z,166.52
2023-03-26T22:02:38.130Z,175.18
2023-03-26T22:05:14.866Z,165.73
2023-03-26T22:08:03.240Z,161.02
2023-03-26T22:10:35.310Z,165.82
2023-03-26T22:13:04.906Z,168.68
2023-03-26T22:15:34.755Z,173.93
2023-03-26T22:18:03.219Z,175.45
2023-03-26T22:20:31.748Z,168.57
2023-03-26T22:23:00.432Z,175.30
2023-03-26T22:25:29.824Z,172.00
2023-03-26T22:27:59.455Z,174.35
2023-03-26T22:30:31.385Z,166.68
2023-03-26T22:32:59.088Z,168.15
2023-03-26T22:35:29.402Z,168.77
2023-03-26T22:38:00.731Z,172.95
2023-03-26T22:40:31.472Z,168.75
2023-03-26T22:42:58.452Z,172.13
2023-03-26T22:45:28.210Z,173.60
2023-03-26T22:48:03.918Z,168.18
2023-03-26T22:50:33.500Z,169.63
2023-03-26T22:53:00.603Z,173.10
2023-03-26T22:55:29.123Z,162.57
2023-03-26T22:57:58.617Z,167.55
2023-03-26T23:00:28.566Z,168.15
2023-03-26T23:03:00.390Z,167.02
2023-03-26T23:05:28.615Z,169.30
2023-03-26T23:07:58.796Z,167.68
2023-03-26T23:10:28.321Z,165.48
2023-03-26T23:12:55.244Z,168.00
2023-03-26T23:15:26.218Z,165.45
2023-03-26T23:18:00.419Z,160.82
2023-03-26T23:20:29.175Z,174.15
2023-03-26T23:22:58.126Z,167.30
2023-03-26T23:25:25.136Z,164.48
2023-03-26T23:27:55.624Z,169.13
2023-03-26T23:30:24.127Z,170.98
2023-03-26T23:32:51.583Z,172.10
2023-03-26T23:35:21.309Z,170.80
2023-03-26T23:37:51.093Z,166.60
2023-03-26T23:40:18.714Z,170.02
2023-03-26T23:42:50.953Z,175.80
2023-03-26T23:45:19.431Z,170.82
2023-03-26T23:47:48.041Z,166.98
2023-03-26T23:50:18.597Z,168.50
2023-03-26T23:52:47.327Z,169.52
2023-03-26T23:55:14.947Z,168.20
2023-03-26T23:57:43.413Z,165.93
